createdAt,value
2023-02-08T00:00:17.277Z,6.23
2023-02-08T00:05:22.221Z,6.43
2023-02-08T00:10:25.835Z,5.20
2023-02-08T00:15:29.391Z,6.33
2023-02-08T00:20:34.364Z,6.37
2023-02-08T00:25:38.407Z,4.37
2023-02-08T00:30:43.082Z,4.93
2023-02-08T00:35:48.367Z,5.53
2023-02-08T00:40:51.929Z,5.10
2023-02-08T00:45:56.485Z,6.60
2023-02-08T00:51:05.076Z,4.93
2023-02-08T00:56:09.464Z,4.80
2023-02-08T01:01:14.228Z,3.93
2023-02-08T01:06:20.183Z,4.87
2023-02-08T01:11:25.885Z,4.03
2023-02-08T01:16:31.627Z,3.53
2023-02-08T01:21:40.857Z,6.10
2023-02-08T01:26:44.580Z,5.70
2023-02-08T01:31:48.276Z,4.70
2023-02-08T01:36:53.323Z,4.60
2023-02-08T01:41:56.906Z,5.03
2023-02-08T01:47:00.443Z,3.63
2023-02-08T01:52:11.032Z,3.63
2023-02-08T01:57:14.985Z,5.03
2023-02-08T02:02:22.776Z,3.50
2023-02-08T02:07:30.846Z,4.13
2023-02-08T02:12:38.944Z,4.17
2023-02-08T02:17:42.898Z,2.60
2023-02-08T02:23:13.145Z,3.60
2023-02-08T02:28:42.856Z,3.03
2023-02-08T02:33:59.263Z,2.47
2023-02-08T02:39:12.469Z,2.17
2023-02-08T02:44:24.060Z,3.37
2023-02-08T02:49:34.040Z,3.77
2023-02-08T02:54:42.682Z,3.70
2023-02-08T02:59:46.985Z,3.20
2023-02-08T03:04:55.189Z,4.00
2023-02-08T03:10:08.832Z,2.97
2023-02-08T03:15:23.729Z,2.90
2023-02-08T03:20:33.450Z,4.87
2023-02-08T03:25:49.956Z,4.53
2023-02-08T03:31:01.327Z,4.27
2023-02-08T03:36:10.392Z,2.60
2023-02-08T03:41:17.671Z,3.13
2023-02-08T03:46:25.463Z,2.43
2023-02-08T03:51:33.980Z,3.30
2023-02-08T03:56:44.112Z,3.80
2023-02-08T04:01:52.245Z,3.23
2023-02-08T04:06:57.362Z,3.10
2023-02-08T04:12:00.977Z,3.50
2023-02-08T04:17:04.611Z,5.33
2023-02-08T04:22:09.533Z,4.00
2023-02-08T04:27:13.085Z,3.13
2023-02-08T04:32:16.654Z,3.63
2023-02-08T04:37:21.562Z,3.23
2023-02-08T04:42:25.106Z,3.57
2023-02-08T04:47:28.715Z,3.90
2023-02-08T04:52:33.641Z,4.23
2023-02-08T04:57:37.235Z,2.63
2023-02-08T05:02:40.799Z,4.20
2023-02-08T05:07:45.683Z,2.80
2023-02-08T05:12:49.199Z,3.10
2023-02-08T05:17:52.839Z,2.83
2023-02-08T05:22:58.187Z,1.90
2023-02-08T05:28:01.885Z,2.30
2023-02-08T05:33:05.627Z,2.63
2023-02-08T05:38:10.570Z,2.93
2023-02-08T05:43:14.061Z,2.70
2023-02-08T05:48:17.663Z,2.33
2023-02-08T05:53:22.568Z,2.17
2023-02-08T05:58:26.582Z,2.10
2023-02-08T06:03:30.516Z,1.80
2023-02-08T06:08:35.426Z,1.83
2023-02-08T06:13:39.716Z,2.10
2023-02-08T06:18:43.301Z,3.47
2023-02-08T06:23:48.421Z,1.83
2023-02-08T06:28:52.014Z,3.07
2023-02-08T06:33:55.545Z,3.53
2023-02-08T06:39:00.467Z,2.73
2023-02-08T06:44:04.125Z,2.40
2023-02-08T06:49:07.676Z,2.33
2023-02-08T06:54:12.602Z,2.13
2023-02-08T06:59:16.199Z,1.77
2023-02-08T07:04:19.726Z,1.47
2023-02-08T07:09:25.219Z,1.80
2023-02-08T07:14:28.800Z,1.70
2023-02-08T07:19:32.693Z,3.07
2023-02-08T07:24:39.126Z,2.10
2023-02-08T07:29:42.743Z,1.63
2023-02-08T07:34:46.934Z,2.27
2023-02-08T07:39:52.229Z,1.80
2023-02-08T07:44:55.789Z,2.43
2023-02-08T07:49:59.374Z,1.97
2023-02-08T07:55:04.298Z,2.33
2023-02-08T08:00:09.056Z,1.97
2023-02-08T08:05:15.598Z,2.27
2023-02-08T08:10:20.572Z,2.10
2023-02-08T08:15:24.153Z,2.57
2023-02-08T08:20:28.095Z,3.30
2023-02-08T08:25:33.499Z,2.83
2023-02-08T08:30:37.247Z,2.63
2023-02-08T08:35:40.942Z,2.63
2023-02-08T08:40:45.840Z,1.63
2023-02-08T08:45:50.607Z,1.80
2023-02-08T08:50:55.566Z,2.20
2023-02-08T08:56:00.630Z,2.37
2023-02-08T09:01:04.409Z,2.80
2023-02-08T09:06:08.081Z,3.63
2023-02-08T09:11:14.795Z,3.97
2023-02-08T09:16:19.029Z,3.07
2023-02-08T09:21:25.281Z,3.17
2023-02-08T09:26:30.483Z,2.93
2023-02-08T09:31:37.706Z,2.83
2023-02-08T09:36:42.380Z,3.83
2023-02-08T09:42:04.521Z,3.23
2023-02-08T09:47:14.847Z,4.07
2023-02-08T09:52:23.388Z,2.80
2023-02-08T09:57:33.747Z,3.50
2023-02-08T10:02:37.438Z,4.43
2023-02-08T10:07:42.204Z,3.00
2023-02-08T10:12:59.144Z,3.20
2023-02-08T10:18:34.277Z,4.60
2023-02-08T10:23:59.991Z,3.17
2023-02-08T10:29:42.612Z,3.43
2023-02-08T10:34:48.445Z,3.10
2023-02-08T10:39:52.592Z,3.40
2023-02-08T10:45:19.030Z,4.13
2023-02-08T10:50:34.370Z,3.17
2023-02-08T10:55:44.774Z,2.53
2023-02-08T11:00:51.947Z,3.77
2023-02-08T11:05:56.226Z,2.60
2023-02-08T11:11:03.711Z,2.97
2023-02-08T11:16:12.816Z,2.73
2023-02-08T11:21:25.600Z,2.23
2023-02-08T11:26:35.403Z,3.43
2023-02-08T11:31:41.688Z,2.50
2023-02-08T11:36:47.973Z,3.23
2023-02-08T11:41:55.903Z,2.10
2023-02-08T11:47:03.911Z,3.60
2023-02-08T11:52:19.643Z,2.37
2023-02-08T11:57:25.527Z,3.07
2023-02-08T12:02:38.094Z,2.57
2023-02-08T12:08:00.433Z,1.70
2023-02-08T12:13:22.199Z,2.70
2023-02-08T12:18:54.239Z,2.40
2023-02-08T12:24:03.830Z,2.93
2023-02-08T12:29:45.673Z,2.47
2023-02-08T12:35:04.987Z,2.77
2023-02-08T12:40:41.315Z,2.33
2023-02-08T12:46:17.323Z,2.03
2023-02-08T12:51:30.664Z,2.40
2023-02-08T12:56:38.247Z,2.17
2023-02-08T13:01:45.328Z,3.30
2023-02-08T13:06:54.717Z,3.47
2023-02-08T13:12:04.102Z,2.17
2023-02-08T13:17:16.773Z,2.27
2023-02-08T13:22:23.438Z,2.23
2023-02-08T13:27:27.318Z,3.53
2023-02-08T13:32:36.063Z,2.70
2023-02-08T13:37:42.471Z,2.57
2023-02-08T13:42:50.721Z,2.73
2023-02-08T13:47:59.674Z,1.87
2023-02-08T13:53:05.430Z,2.10
2023-02-08T13:58:44.668Z,1.60
2023-02-08T14:04:16.926Z,1.97
2023-02-08T14:09:28.049Z,1.80
2023-02-08T14:14:34.255Z,1.20
2023-02-08T14:19:41.457Z,1.80
2023-02-08T14:24:49.611Z,1.83
2023-02-08T14:29:59.501Z,1.47
2023-02-08T14:35:07.609Z,1.90
2023-02-08T14:40:50.572Z,1.30
2023-02-08T14:45:57.509Z,1.17
2023-02-08T14:51:20.005Z,1.70
2023-02-08T14:56:29.116Z,1.30
2023-02-08T15:01:44.341Z,1.17
2023-02-08T15:07:11.593Z,2.43
2023-02-08T15:12:23.255Z,1.23
2023-02-08T15:17:34.703Z,1.40
2023-02-08T15:22:40.599Z,1.10
2023-02-08T15:27:50.076Z,2.07
2023-02-08T15:32:54.380Z,1.83
2023-02-08T15:37:58.936Z,1.87
2023-02-08T15:43:13.455Z,2.30
2023-02-08T15:48:17.765Z,1.63
2023-02-08T15:53:21.963Z,2.17
2023-02-08T15:58:30.641Z,1.70
2023-02-08T16:03:36.642Z,1.60
2023-02-08T16:08:44.012Z,1.53
2023-02-08T16:13:52.039Z,1.37
2023-02-08T16:19:00.417Z,2.13
2023-02-08T16:24:08.976Z,1.50
2023-02-08T16:29:21.546Z,2.27
2023-02-08T16:34:25.403Z,2.20
2023-02-08T16:39:39.545Z,4.03
2023-02-08T16:45:03.658Z,1.50
2023-02-08T16:50:08.907Z,0.80
2023-02-08T16:55:20.948Z,1.87
2023-02-08T17:00:28.313Z,1.60
2023-02-08T17:05:36.182Z,1.93
2023-02-08T17:10:40.088Z,3.03
2023-02-08T17:15:45.519Z,2.30
2023-02-08T17:20:49.673Z,2.30
2023-02-08T17:25:54.145Z,2.57
2023-02-08T17:30:59.719Z,2.70
2023-02-08T17:36:03.981Z,2.13
2023-02-08T17:41:08.530Z,2.77
2023-02-08T17:46:16.186Z,3.83
2023-02-08T17:51:21.823Z,2.40
2023-02-08T17:56:27.423Z,2.73
2023-02-08T18:01:32.823Z,3.80
2023-02-08T18:06:36.806Z,4.43
2023-02-08T18:11:41.290Z,4.43
2023-02-08T18:16:46.676Z,4.90
2023-02-08T18:21:50.436Z,4.27
2023-02-08T18:26:54.160Z,4.70
2023-02-08T18:31:59.195Z,5.23
2023-02-08T18:37:02.807Z,4.73
2023-02-08T18:42:06.652Z,4.63
2023-02-08T18:47:11.888Z,4.27
2023-02-08T18:52:16.148Z,4.43
2023-02-08T18:57:20.652Z,5.17
2023-02-08T19:02:26.409Z,4.23
2023-02-08T19:07:30.040Z,5.77
2023-02-08T19:12:33.589Z,5.37
2023-02-08T19:17:38.538Z,5.73
2023-02-08T19:22:42.085Z,4.07
2023-02-08T19:27:49.836Z,4.97
2023-02-08T19:32:54.970Z,6.47
2023-02-08T19:37:58.565Z,5.17
2023-02-08T19:43:03.460Z,4.90
2023-02-08T19:48:08.585Z,3.27
2023-02-08T19:53:12.216Z,3.20
2023-02-08T19:58:16.154Z,3.50
2023-02-08T20:03:22.748Z,5.90
2023-02-08T20:08:27.362Z,3.67
2023-02-08T20:13:31.046Z,3.97
2023-02-08T20:18:35.943Z,3.37
2023-02-08T20:23:39.928Z,5.03
2023-02-08T20:28:45.942Z,5.50
2023-02-08T20:33:51.959Z,5.10
2023-02-08T20:38:57.804Z,5.27
2023-02-08T20:44:01.547Z,6.33
2023-02-08T20:49:07.774Z,4.10
2023-02-08T20:54:12.025Z,5.43
2023-02-08T20:59:16.379Z,4.17
2023-02-08T21:04:23.401Z,5.43
2023-02-08T21:09:27.405Z,6.10
2023-02-08T21:14:31.072Z,5.57
2023-02-08T21:19:35.957Z,6.07
2023-02-08T21:24:39.553Z,5.00
2023-02-08T21:29:43.113Z,5.13
2023-02-08T21:34:49.921Z,5.10
2023-02-08T21:39:53.617Z,4.10
2023-02-08T21:44:58.484Z,5.17
2023-02-08T21:50:20.656Z,3.97
2023-02-08T21:55:24.218Z,4.47
2023-02-08T22:00:27.842Z,5.93
2023-02-08T22:05:32.962Z,3.40
2023-02-08T22:10:36.574Z,4.13
2023-02-08T22:15:40.301Z,3.03
2023-02-08T22:20:45.513Z,3.73
2023-02-08T22:25:49.353Z,3.73
2023-02-08T22:30:53.001Z,3.00
2023-02-08T22:35:58.073Z,2.00
2023-02-08T22:41:01.816Z,1.50
2023-02-08T22:46:05.785Z,1.17
2023-02-08T22:51:13.397Z,1.30
2023-02-08T22:56:18.956Z,2.80
2023-02-08T23:01:22.563Z,2.03
2023-02-08T23:06:27.609Z,1.90
2023-02-08T23:11:31.205Z,1.87
2023-02-08T23:16:34.882Z,2.33
2023-02-08T23:21:39.936Z,3.73
2023-02-08T23:26:43.660Z,2.50
2023-02-08T23:31:47.249Z,2.03
2023-02-08T23:36:54.045Z,2.20
2023-02-08T23:41:57.653Z,2.63
2023-02-08T23:47:01.691Z,4.13
2023-02-08T23:52:06.678Z,5.80
2023-02-08T23:57:10.535Z,4.43
